createdAt,value
2023-09-24T00:00:11.851Z,33.40
2023-09-24T00:02:40.005Z,33.60
2023-09-24T00:05:08.821Z,33.80
2023-09-24T00:07:36.060Z,33.30
2023-09-24T00:10:05.309Z,33.10
2023-09-24T00:12:32.671Z,33.10
2023-09-24T00:15:00.026Z,33.50
2023-09-24T00:17:28.160Z,33.50
2023-09-24T00:19:55.229Z,33.50
2023-09-24T00:22:23.916Z,33.40
2023-09-24T00:24:52.974Z,33.70
2023-09-24T00:27:19.957Z,33.10
2023-09-24T00:29:47.036Z,33.10
2023-09-24T00:32:14.182Z,33.70
2023-09-24T00:34:41.514Z,33.90
2023-09-24T00:37:08.453Z,33.80
2023-09-24T00:39:37.602Z,33.80
2023-09-24T00:42:07.052Z,33.50
2023-09-24T00:44:34.050Z,33.10
2023-09-24T00:47:01.126Z,32.30
2023-09-24T00:49:28.489Z,32.30
2023-09-24T00:51:55.741Z,32.20
2023-09-24T00:54:23.378Z,32.20
2023-09-24T00:56:51.482Z,32.00
2023-09-24T00:59:18.564Z,32.20
2023-09-24T01:01:46.141Z,31.70
2023-09-24T01:04:14.449Z,31.40
2023-09-24T01:06:41.543Z,31.70
2023-09-24T01:09:10.096Z,31.80
2023-09-24T01:11:39.552Z,32.50
2023-09-24T01:14:06.959Z,32.90
2023-09-24T01:16:34.133Z,32.90
2023-09-24T01:19:01.081Z,32.40
2023-09-24T01:21:29.318Z,32.50
2023-09-24T01:24:00.747Z,32.10
2023-09-24T01:26:28.840Z,32.20
2023-09-24T01:28:55.963Z,32.20
2023-09-24T01:31:23.045Z,32.20
2023-09-24T01:33:51.291Z,31.90
2023-09-24T01:36:23.004Z,32.30
2023-09-24T01:38:49.996Z,32.70
2023-09-24T01:41:17.013Z,33.00
2023-09-24T01:43:44.398Z,33.30
2023-09-24T01:46:15.152Z,33.10
2023-09-24T01:48:44.936Z,32.50
2023-09-24T01:51:12.565Z,32.30
2023-09-24T01:53:40.660Z,32.50
2023-09-24T01:56:09.246Z,32.60
2023-09-24T01:58:39.786Z,32.90
2023-09-24T02:01:09.116Z,33.20
2023-09-24T02:03:37.363Z,33.20
2023-09-24T02:06:05.749Z,32.60
2023-09-24T02:08:32.909Z,32.60
2023-09-24T02:11:00.576Z,33.00
2023-09-24T02:13:29.188Z,33.20
2023-09-24T02:15:56.698Z,33.40
2023-09-24T02:18:24.085Z,33.40
2023-09-24T02:20:54.267Z,33.60
2023-09-24T02:23:24.848Z,33.20
2023-09-24T02:25:52.082Z,32.70
2023-09-24T02:28:20.216Z,32.80
2023-09-24T02:30:49.310Z,32.70
2023-09-24T02:33:16.924Z,32.70
2023-09-24T02:35:44.257Z,32.90
2023-09-24T02:38:11.606Z,32.70
2023-09-24T02:40:40.313Z,32.90
2023-09-24T02:43:07.830Z,33.10
2023-09-24T02:45:35.171Z,32.50
2023-09-24T02:48:05.753Z,32.40
2023-09-24T02:50:33.598Z,32.10
2023-09-24T02:53:06.115Z,31.60
2023-09-24T02:55:33.575Z,31.10
2023-09-24T02:58:00.628Z,31.70
2023-09-24T03:00:34.324Z,31.50
2023-09-24T03:03:01.851Z,32.10
2023-09-24T03:05:30.155Z,32.60
2023-09-24T03:07:58.717Z,31.50
2023-09-24T03:10:25.688Z,31.50
2023-09-24T03:12:53.137Z,31.20
2023-09-24T03:15:23.042Z,30.70
2023-09-24T03:17:50.188Z,30.80
2023-09-24T03:20:24.115Z,30.80
2023-09-24T03:22:52.388Z,31.20
2023-09-24T03:25:21.921Z,31.40
2023-09-24T03:27:53.850Z,32.00
2023-09-24T03:30:21.846Z,32.50
2023-09-24T03:32:50.196Z,32.20
2023-09-24T03:35:20.516Z,31.20
2023-09-24T03:37:48.335Z,31.60
2023-09-24T03:40:18.162Z,31.50
2023-09-24T03:42:45.777Z,32.30
2023-09-24T03:45:18.337Z,32.30
2023-09-24T03:47:49.580Z,32.60
2023-09-24T03:50:20.705Z,32.90
2023-09-24T03:52:48.968Z,33.20
2023-09-24T03:55:21.111Z,33.30
2023-09-24T03:57:49.116Z,33.40
2023-09-24T04:00:21.004Z,33.70
2023-09-24T04:02:50.349Z,34.30
2023-09-24T04:05:21.095Z,34.20
2023-09-24T04:07:51.101Z,33.70
2023-09-24T04:10:18.998Z,34.20
2023-09-24T04:12:53.675Z,34.00
2023-09-24T04:15:28.537Z,33.80
2023-09-24T04:18:01.942Z,33.10
2023-09-24T04:20:31.317Z,33.20
2023-09-24T04:22:58.699Z,32.80
2023-09-24T04:25:27.821Z,32.70
2023-09-24T04:27:55.175Z,32.30
2023-09-24T04:30:24.016Z,32.10
2023-09-24T04:32:55.173Z,32.00
2023-09-24T04:35:22.766Z,31.90
2023-09-24T04:37:51.029Z,32.20
2023-09-24T04:40:18.453Z,32.40
2023-09-24T04:42:46.785Z,32.70
2023-09-24T04:45:15.768Z,32.50
2023-09-24T04:47:44.301Z,32.90
2023-09-24T04:50:13.696Z,32.70
2023-09-24T04:52:43.584Z,33.10
2023-09-24T04:55:10.903Z,33.40
2023-09-24T04:57:38.170Z,33.70
2023-09-24T05:00:06.182Z,33.70
2023-09-24T05:02:33.538Z,33.20
2023-09-24T05:05:00.714Z,32.90
2023-09-24T05:07:27.898Z,33.00
2023-09-24T05:09:54.967Z,33.10
2023-09-24T05:12:23.645Z,33.40
2023-09-24T05:14:50.947Z,33.50
2023-09-24T05:17:18.104Z,33.90
2023-09-24T05:19:45.028Z,34.30
2023-09-24T05:22:11.946Z,34.60
2023-09-24T05:24:38.933Z,34.60
2023-09-24T05:27:06.149Z,34.70
2023-09-24T05:29:33.153Z,35.00
2023-09-24T05:32:02.254Z,35.20
2023-09-24T05:34:29.659Z,35.30
2023-09-24T05:36:56.857Z,35.50
2023-09-24T05:39:23.964Z,35.40
2023-09-24T05:41:51.261Z,35.70
2023-09-24T05:44:18.949Z,35.70
2023-09-24T05:46:46.145Z,35.90
2023-09-24T05:49:13.261Z,35.00
2023-09-24T05:51:40.205Z,34.20
2023-09-24T05:54:08.755Z,33.40
2023-09-24T05:56:35.787Z,33.20
2023-09-24T05:59:02.804Z,32.50
2023-09-24T06:01:30.415Z,32.30
2023-09-24T06:03:57.576Z,31.80
2023-09-24T06:06:24.647Z,32.00
2023-09-24T06:08:54.926Z,32.50
2023-09-24T06:11:21.986Z,33.30
2023-09-24T06:13:49.307Z,34.00
2023-09-24T06:16:16.519Z,34.70
2023-09-24T06:18:43.722Z,35.30
2023-09-24T06:21:16.415Z,35.50
2023-09-24T06:23:43.524Z,35.40
2023-09-24T06:26:10.854Z,34.90
2023-09-24T06:28:37.852Z,35.40
2023-09-24T06:31:05.683Z,35.60
2023-09-24T06:33:33.224Z,35.50
2023-09-24T06:36:04.157Z,35.80
2023-09-24T06:38:32.127Z,35.90
2023-09-24T06:41:04.145Z,36.30
2023-09-24T06:43:34.658Z,36.80
2023-09-24T06:46:07.988Z,36.80
2023-09-24T06:48:35.209Z,36.80
2023-09-24T06:51:09.725Z,36.80
2023-09-24T06:53:40.824Z,37.00
2023-09-24T06:56:08.466Z,37.60
2023-09-24T06:58:36.633Z,37.50
2023-09-24T07:01:07.539Z,37.20
2023-09-24T07:03:34.587Z,37.30
2023-09-24T07:06:05.200Z,36.70
2023-09-24T07:08:35.939Z,36.50
2023-09-24T07:11:21.528Z,36.80
2023-09-24T07:13:49.161Z,37.20
2023-09-24T07:16:16.455Z,37.20
2023-09-24T07:18:43.633Z,37.70
2023-09-24T07:21:23.266Z,38.10
2023-09-24T07:24:03.173Z,38.50
2023-09-24T07:26:30.931Z,38.90
2023-09-24T07:28:58.157Z,39.40
2023-09-24T07:31:30.127Z,38.70
2023-09-24T07:34:00.127Z,38.50
2023-09-24T07:38:57.497Z,38.30
2023-09-24T07:41:24.686Z,38.00
2023-09-24T07:43:51.817Z,38.00
2023-09-24T07:46:20.837Z,38.50
2023-09-24T07:48:49.247Z,37.90
2023-09-24T07:51:18.176Z,37.90
2023-09-24T07:53:46.860Z,38.30
2023-09-24T07:56:14.353Z,38.50
2023-09-24T07:58:42.141Z,38.80
2023-09-24T08:01:14.455Z,39.50
2023-09-24T08:03:44.378Z,39.30
2023-09-24T08:06:11.534Z,39.30
2023-09-24T08:08:51.386Z,40.40
2023-09-24T08:11:20.987Z,41.00
2023-09-24T08:13:51.006Z,41.50
2023-09-24T08:16:20.233Z,41.20
2023-09-24T08:18:48.577Z,41.10
2023-09-24T08:21:15.966Z,41.60
2023-09-24T08:23:43.572Z,42.00
2023-09-24T08:26:10.627Z,42.00
2023-09-24T08:28:37.753Z,42.70
2023-09-24T08:31:11.902Z,43.30
2023-09-24T08:33:39.128Z,42.90
2023-09-24T08:36:11.142Z,43.40
2023-09-24T08:38:38.830Z,43.30
2023-09-24T08:41:13.514Z,43.60
2023-09-24T08:43:44.755Z,44.90
2023-09-24T08:46:12.899Z,45.60
2023-09-24T08:48:41.624Z,46.00
2023-09-24T08:51:10.995Z,45.60
2023-09-24T08:53:39.380Z,44.80
2023-09-24T08:56:06.669Z,45.10
2023-09-24T08:58:33.746Z,45.10
2023-09-24T09:01:02.182Z,45.20
2023-09-24T09:03:30.229Z,44.00
2023-09-24T09:05:58.067Z,43.10
2023-09-24T09:08:24.988Z,43.30
2023-09-24T09:10:52.033Z,42.80
2023-09-24T09:13:23.262Z,43.00
2023-09-24T09:16:05.335Z,43.40
2023-09-24T09:18:33.104Z,43.20
2023-09-24T09:21:00.971Z,43.10
2023-09-24T09:23:38.392Z,43.70
2023-09-24T09:26:07.023Z,44.10
2023-09-24T09:28:38.259Z,44.20
2023-09-24T09:31:10.107Z,44.70
2023-09-24T09:33:40.174Z,45.20
2023-09-24T09:36:24.802Z,45.80
2023-09-24T09:38:53.209Z,46.50
2023-09-24T09:41:21.396Z,46.70
2023-09-24T09:43:49.582Z,46.00
2023-09-24T09:46:26.453Z,46.80
2023-09-24T09:48:59.680Z,47.70
2023-09-24T09:51:28.481Z,48.10
2023-09-24T09:54:06.596Z,48.20
2023-09-24T09:56:38.158Z,48.20
2023-09-24T09:59:08.821Z,48.50
2023-09-24T10:01:37.065Z,49.00
2023-09-24T10:04:08.486Z,48.90
2023-09-24T10:06:39.709Z,48.30
2023-09-24T10:09:28.528Z,48.10
2023-09-24T10:11:57.938Z,47.70
2023-09-24T10:14:43.994Z,46.80
2023-09-24T10:17:27.376Z,46.10
2023-09-24T10:20:01.091Z,45.70
2023-09-24T10:22:35.229Z,45.40
2023-09-24T10:25:33.265Z,45.90
2023-09-24T10:28:09.622Z,46.30
2023-09-24T10:31:10.353Z,46.90
2023-09-24T10:33:59.126Z,47.20
2023-09-24T10:36:35.311Z,47.60
2023-09-24T10:39:09.046Z,48.10
2023-09-24T10:41:37.531Z,48.40
2023-09-24T10:44:27.305Z,48.20
2023-09-24T10:46:56.970Z,48.10
2023-09-24T10:49:26.182Z,47.80
2023-09-24T10:52:00.467Z,47.90
2023-09-24T10:54:27.663Z,48.30
2023-09-24T10:56:54.726Z,49.20
2023-09-24T10:59:35.689Z,49.50
2023-09-24T11:02:21.854Z,49.70
2023-09-24T11:04:49.402Z,50.00
2023-09-24T11:07:16.775Z,50.40
2023-09-24T11:09:50.753Z,50.40
2023-09-24T11:12:18.145Z,50.50
2023-09-24T11:15:14.213Z,50.00
2023-09-24T11:17:45.611Z,50.30
2023-09-24T11:20:13.827Z,49.30
2023-09-24T11:22:41.507Z,49.70
2023-09-24T11:25:13.823Z,49.90
2023-09-24T11:27:55.196Z,49.60
2023-09-24T11:30:24.476Z,48.40
2023-09-24T11:32:53.432Z,48.20
2023-09-24T11:35:27.069Z,48.50
2023-09-24T11:37:56.230Z,49.00
2023-09-24T11:40:27.368Z,48.80
2023-09-24T11:43:06.068Z,49.10
2023-09-24T11:45:40.605Z,48.80
2023-09-24T11:48:11.766Z,48.20
2023-09-24T11:50:41.454Z,48.40
2023-09-24T11:53:08.681Z,48.00
2023-09-24T11:55:36.406Z,48.80
2023-09-24T11:58:05.814Z,48.30
2023-09-24T12:00:34.614Z,48.40
2023-09-24T12:03:02.371Z,48.90
2023-09-24T12:05:33.951Z,47.80
2023-09-24T12:08:03.410Z,46.90
2023-09-24T12:10:30.957Z,46.40
2023-09-24T12:13:02.702Z,47.00
2023-09-24T12:15:33.224Z,47.10
2023-09-24T12:18:01.529Z,47.10
2023-09-24T12:20:28.885Z,47.00
2023-09-24T12:22:56.498Z,47.10
2023-09-24T12:25:24.005Z,46.90
2023-09-24T12:27:50.872Z,46.80
2023-09-24T12:30:17.907Z,46.50
2023-09-24T12:32:45.002Z,46.30
2023-09-24T12:35:13.150Z,46.50
2023-09-24T12:37:40.917Z,46.70
2023-09-24T12:40:10.104Z,47.40
2023-09-24T12:42:41.549Z,47.90
2023-09-24T12:45:12.448Z,48.20
2023-09-24T12:47:40.128Z,48.30
2023-09-24T12:50:09.049Z,48.40
2023-09-24T12:52:39.208Z,48.50
2023-09-24T12:55:08.697Z,48.00
2023-09-24T12:57:36.518Z,48.20
2023-09-24T13:00:11.959Z,48.30
2023-09-24T13:02:43.643Z,47.70
2023-09-24T13:05:12.236Z,47.80
2023-09-24T13:07:45.353Z,47.80
2023-09-24T13:10:16.094Z,47.80
2023-09-24T13:12:44.777Z,48.50
2023-09-24T13:15:13.060Z,48.30
2023-09-24T13:17:43.174Z,48.60
2023-09-24T13:20:14.979Z,48.70
2023-09-24T13:22:42.384Z,49.00
2023-09-24T13:25:10.673Z,49.50
2023-09-24T13:27:39.544Z,49.70
2023-09-24T13:30:08.579Z,49.90
2023-09-24T13:32:37.486Z,49.90
2023-09-24T13:35:07.851Z,50.20
2023-09-24T13:37:35.573Z,50.20
2023-09-24T13:40:02.571Z,50.20
2023-09-24T13:42:29.838Z,50.20
2023-09-24T13:44:56.867Z,50.40
2023-09-24T13:47:23.919Z,50.20
2023-09-24T13:49:51.005Z,49.50
2023-09-24T13:52:17.924Z,48.30
2023-09-24T13:54:45.231Z,47.30
2023-09-24T13:57:12.661Z,47.40
2023-09-24T13:59:39.718Z,47.90
2023-09-24T14:02:07.806Z,47.40
2023-09-24T14:04:35.220Z,46.90
2023-09-24T14:07:02.136Z,46.70
2023-09-24T14:09:47.855Z,46.70
2023-09-24T14:12:26.211Z,46.50
2023-09-24T14:14:56.393Z,46.10
2023-09-24T14:17:23.773Z,45.80
2023-09-24T14:19:54.107Z,45.20
2023-09-24T14:22:21.297Z,44.60
2023-09-24T14:24:48.331Z,45.40
2023-09-24T14:27:15.888Z,46.20
2023-09-24T14:29:42.877Z,46.40
2023-09-24T14:32:10.467Z,45.70
2023-09-24T14:34:37.420Z,45.10
2023-09-24T14:37:04.478Z,44.50
2023-09-24T14:39:32.804Z,44.60
2023-09-24T14:42:00.225Z,45.60
2023-09-24T14:44:33.210Z,45.50
2023-09-24T14:47:01.193Z,44.90
2023-09-24T14:49:29.279Z,45.30
2023-09-24T14:51:56.413Z,45.70
2023-09-24T14:54:23.661Z,46.10
2023-09-24T14:56:50.627Z,46.50
2023-09-24T14:59:17.731Z,46.90
2023-09-24T15:01:44.678Z,47.10
2023-09-24T15:04:11.695Z,47.20
2023-09-24T15:06:39.051Z,47.10
2023-09-24T15:09:06.114Z,47.00
2023-09-24T15:11:34.807Z,46.50
2023-09-24T15:14:01.903Z,46.10
2023-09-24T15:16:29.275Z,45.10
2023-09-24T15:18:56.756Z,44.80
2023-09-24T15:21:24.071Z,44.60
2023-09-24T15:23:51.226Z,44.40
2023-09-24T15:26:18.595Z,44.20
2023-09-24T15:28:45.589Z,44.00
2023-09-24T15:31:13.003Z,43.70
2023-09-24T15:33:40.272Z,43.50
2023-09-24T15:36:09.014Z,43.30
2023-09-24T15:38:40.644Z,43.20
2023-09-24T15:41:08.354Z,43.10
2023-09-24T15:43:35.263Z,42.90
2023-09-24T15:46:02.245Z,42.70
2023-09-24T15:48:29.376Z,42.50
2023-09-24T15:50:56.690Z,42.50
2023-09-24T15:53:23.615Z,42.40
2023-09-24T15:55:50.633Z,42.30
2023-09-24T15:58:17.696Z,42.30
2023-09-24T16:00:47.695Z,42.10
2023-09-24T16:03:18.998Z,42.10
2023-09-24T16:05:46.467Z,42.00
2023-09-24T16:08:13.610Z,42.00
2023-09-24T16:10:41.333Z,41.80
2023-09-24T16:13:08.498Z,41.40
2023-09-24T16:15:35.565Z,41.30
2023-09-24T16:18:03.110Z,41.30
2023-09-24T16:20:32.065Z,41.40
2023-09-24T16:22:59.795Z,41.40
2023-09-24T16:25:26.997Z,41.40
2023-09-24T16:27:53.958Z,41.40
2023-09-24T16:30:21.178Z,41.30
2023-09-24T16:32:49.537Z,41.30
2023-09-24T16:35:17.641Z,41.10
2023-09-24T16:37:48.225Z,41.00
2023-09-24T16:40:15.306Z,40.90
2023-09-24T16:42:46.323Z,40.80
2023-09-24T16:45:13.511Z,40.80
2023-09-24T16:47:43.636Z,40.80
2023-09-24T16:50:11.428Z,40.70
2023-09-24T16:52:38.329Z,40.70
2023-09-24T16:55:05.762Z,40.70
2023-09-24T16:57:32.831Z,40.50
2023-09-24T17:00:00.057Z,40.30
2023-09-24T17:02:27.096Z,40.20
2023-09-24T17:04:54.123Z,39.90
2023-09-24T17:07:21.083Z,39.70
2023-09-24T17:09:48.167Z,39.50
2023-09-24T17:12:15.131Z,39.60
2023-09-24T17:14:42.079Z,39.60
2023-09-24T17:17:09.936Z,39.70
2023-09-24T17:19:36.859Z,39.80
2023-09-24T17:22:03.751Z,39.80
2023-09-24T17:24:33.013Z,39.80
2023-09-24T17:27:00.234Z,39.70
2023-09-24T17:29:27.217Z,39.60
2023-09-24T17:31:54.505Z,39.60
2023-09-24T17:34:21.416Z,39.60
2023-09-24T17:36:48.852Z,39.60
2023-09-24T17:39:15.911Z,39.50
2023-09-24T17:41:43.452Z,39.50
2023-09-24T17:44:12.148Z,39.40
2023-09-24T17:46:39.511Z,39.40
2023-09-24T17:49:06.690Z,39.40
2023-09-24T17:51:34.182Z,39.40
2023-09-24T17:54:01.533Z,39.30
2023-09-24T17:56:28.492Z,39.20
2023-09-24T17:58:55.463Z,39.20
2023-09-24T18:01:26.815Z,39.20
2023-09-24T18:03:54.617Z,39.10
2023-09-24T18:06:22.501Z,39.00
2023-09-24T18:08:50.183Z,38.90
2023-09-24T18:11:17.363Z,38.90
2023-09-24T18:13:46.196Z,38.90
2023-09-24T18:16:14.831Z,38.90
2023-09-24T18:18:42.270Z,38.80
2023-09-24T18:21:09.499Z,38.80
2023-09-24T18:23:37.423Z,38.80
2023-09-24T18:26:04.879Z,38.70
2023-09-24T18:28:32.151Z,38.70
2023-09-24T18:31:01.150Z,38.70
2023-09-24T18:33:29.530Z,38.60
2023-09-24T18:35:58.059Z,38.60
2023-09-24T18:38:26.132Z,38.60
2023-09-24T18:40:56.679Z,38.50
2023-09-24T18:43:27.998Z,38.50
2023-09-24T18:46:02.605Z,38.50
2023-09-24T18:48:30.435Z,38.40
2023-09-24T18:50:58.992Z,38.40
2023-09-24T18:53:29.108Z,38.30
2023-09-24T18:56:05.877Z,38.20
2023-09-24T18:58:33.548Z,38.20
2023-09-24T19:01:00.867Z,38.20
2023-09-24T19:03:28.167Z,38.30
2023-09-24T19:05:57.645Z,38.20
2023-09-24T19:08:26.927Z,38.30
2023-09-24T19:10:54.397Z,38.20
2023-09-24T19:13:21.842Z,38.30
2023-09-24T19:15:48.881Z,38.30
2023-09-24T19:18:15.944Z,38.30
2023-09-24T19:20:43.133Z,38.30
2023-09-24T19:23:10.299Z,38.20
2023-09-24T19:25:37.683Z,38.20
2023-09-24T19:28:04.909Z,38.20
2023-09-24T19:30:32.020Z,38.20
2023-09-24T19:32:59.258Z,38.20
2023-09-24T19:35:26.464Z,38.20
2023-09-24T19:37:54.742Z,38.10
2023-09-24T19:40:22.093Z,38.10
2023-09-24T19:42:49.393Z,38.10
2023-09-24T19:45:16.746Z,38.10
2023-09-24T19:47:44.098Z,38.10
2023-09-24T19:50:12.584Z,38.10
2023-09-24T19:52:41.480Z,38.00
2023-09-24T19:55:08.919Z,38.00
2023-09-24T19:57:36.257Z,38.00
2023-09-24T20:00:04.222Z,38.00
2023-09-24T20:02:31.572Z,37.90
2023-09-24T20:04:58.617Z,37.80
2023-09-24T20:07:25.740Z,37.80
2023-09-24T20:09:55.350Z,37.80
2023-09-24T20:12:26.847Z,37.70
2023-09-24T20:14:54.668Z,37.70
2023-09-24T20:17:21.878Z,37.70
2023-09-24T20:19:48.890Z,37.60
2023-09-24T20:22:16.268Z,37.60
2023-09-24T20:24:43.555Z,37.60
2023-09-24T20:27:10.843Z,37.50
2023-09-24T20:29:43.249Z,37.50
2023-09-24T20:32:10.296Z,37.50
2023-09-24T20:34:37.431Z,37.40
2023-09-24T20:37:04.668Z,37.40
2023-09-24T20:39:31.906Z,37.30
2023-09-24T20:41:59.090Z,37.30
2023-09-24T20:44:33.290Z,37.30
2023-09-24T20:47:01.686Z,37.20
2023-09-24T20:49:28.874Z,36.90
2023-09-24T20:51:56.020Z,37.00
2023-09-24T20:54:24.000Z,36.70
2023-09-24T20:56:53.504Z,36.70
2023-09-24T20:59:28.635Z,36.90
2023-09-24T21:02:02.650Z,37.00
2023-09-24T21:04:31.309Z,36.90
2023-09-24T21:06:58.274Z,37.00
2023-09-24T21:09:25.560Z,36.70
2023-09-24T21:11:52.690Z,36.90
2023-09-24T21:14:19.982Z,36.30
2023-09-24T21:16:47.756Z,36.30
2023-09-24T21:19:15.763Z,36.50
2023-09-24T21:21:42.960Z,36.60
2023-09-24T21:24:10.469Z,36.70
2023-09-24T21:26:38.097Z,36.60
2023-09-24T21:29:05.347Z,36.80
2023-09-24T21:31:32.324Z,36.70
2023-09-24T21:34:00.035Z,36.80
2023-09-24T21:36:28.840Z,36.90
2023-09-24T21:38:56.349Z,36.90
2023-09-24T21:41:24.386Z,36.90
2023-09-24T21:43:51.342Z,37.00
2023-09-24T21:46:18.610Z,37.00
2023-09-24T21:48:50.366Z,37.10
2023-09-24T21:51:18.013Z,37.20
2023-09-24T21:53:45.217Z,37.20
2023-09-24T21:56:12.333Z,37.20
2023-09-24T21:58:39.368Z,37.20
2023-09-24T22:01:06.598Z,37.20
2023-09-24T22:03:34.435Z,37.20
2023-09-24T22:06:01.749Z,37.20
2023-09-24T22:08:29.218Z,37.20
2023-09-24T22:10:56.240Z,37.20
2023-09-24T22:13:23.613Z,37.20
2023-09-24T22:15:50.631Z,37.20
2023-09-24T22:18:18.017Z,37.20
2023-09-24T22:20:46.195Z,37.20
2023-09-24T22:23:13.845Z,37.20
2023-09-24T22:25:41.066Z,36.80
2023-09-24T22:28:09.019Z,36.70
2023-09-24T22:30:39.195Z,36.60
2023-09-24T22:33:06.399Z,36.80
2023-09-24T22:35:36.661Z,36.80
2023-09-24T22:38:03.848Z,36.80
2023-09-24T22:40:30.938Z,36.70
2023-09-24T22:43:01.654Z,36.70
2023-09-24T22:45:33.288Z,36.60
2023-09-24T22:48:00.438Z,34.90
2023-09-24T22:50:27.420Z,35.20
2023-09-24T22:52:54.653Z,34.80
2023-09-24T22:55:21.846Z,35.20
2023-09-24T22:57:48.937Z,35.30
2023-09-24T23:00:17.484Z,35.40
2023-09-24T23:02:45.178Z,35.40
2023-09-24T23:05:15.068Z,35.30
2023-09-24T23:07:44.043Z,35.40
2023-09-24T23:10:12.704Z,35.50
2023-09-24T23:12:40.092Z,35.60
2023-09-24T23:15:07.783Z,35.70
2023-09-24T23:17:35.140Z,35.90
2023-09-24T23:20:05.621Z,36.10
2023-09-24T23:22:32.658Z,36.20
2023-09-24T23:25:00.131Z,36.30
2023-09-24T23:27:27.331Z,36.20
2023-09-24T23:29:54.655Z,36.30
2023-09-24T23:32:21.755Z,35.90
2023-09-24T23:34:50.272Z,36.20
2023-09-24T23:37:17.286Z,36.10
2023-09-24T23:39:44.493Z,36.00
2023-09-24T23:42:11.705Z,36.10
2023-09-24T23:44:38.803Z,35.80
2023-09-24T23:47:05.861Z,35.90
2023-09-24T23:49:33.277Z,35.60
2023-09-24T23:52:00.315Z,35.80
2023-09-24T23:54:27.452Z,35.90
2023-09-24T23:56:54.771Z,36.00
2023-09-24T23:59:21.847Z,36.10
